Time;durP1;ratioP1;P1;durP2;ratioP2;P2;SDS_P1;SDS_P2;PMS_P1;PMS_P2;Temp;Humidity;BMP_temperature;BMP_pressure;BME280_temperature;BME280_humidity;BME280_pressure;Samples;Min_cycle;Max_cycle;Signal;HPM_P1;HPM_P2
2022/08/06 00:01:20;;;;;;;7.37;3.97;;;;;;;24.72;44.77;99438.63;4363477;32;34983;-74
2022/08/06 00:04:07;;;;;;;5.87;3.42;;;;;;;24.54;45.49;99445.16;4362512;32;34810;-74
2022/08/06 00:06:53;;;;;;;8.60;4.18;;;;;;;23.78;47.21;99441.91;4363552;32;34436;-73
2022/08/06 00:09:40;;;;;;;5.07;3.45;;;;;;;24.53;45.39;99442.75;4352289;32;35643;-74
2022/08/06 00:12:47;;;;;;;8.52;4.20;;;;;;;24.76;44.96;99450.59;4363721;32;35940;-74
2022/08/06 00:15:35;;;;;;;9.25;4.00;;;;;;;24.68;45.56;99447.06;4348788;33;34617;-73
2022/08/06 00:18:41;;;;;;;7.78;3.87;;;;;;;24.54;46.29;99452.78;4348724;33;34155;-73
2022/08/06 00:21:28;;;;;;;6.95;4.20;;;;;;;24.65;46.76;99445.88;4337557;33;34640;-73
2022/08/06 00:24:27;;;;;;;7.12;3.87;;;;;;;24.68;46.43;99453.47;4348582;33;35155;-73
2022/08/06 00:27:15;;;;;;;5.80;3.80;;;;;;;24.56;45.93;99455.94;4348654;33;34640;-73
2022/08/06 00:30:01;;;;;;;4.87;3.85;;;;;;;24.29;46.77;99448.06;4351690;32;150652;-73
2022/08/06 00:32:52;;;;;;;9.73;3.90;;;;;;;24.34;46.89;99455.25;4363258;32;35618;-73
2022/08/06 00:35:38;;;;;;;5.90;3.78;;;;;;;24.39;47.34;99452.84;4372969;32;36001;-73
2022/08/06 00:38:24;;;;;;;6.90;3.83;;;;;;;24.46;46.07;99458.41;4363268;32;34722;-73
2022/08/06 00:41:11;;;;;;;6.90;3.80;;;;;;;24.37;46.48;99452.44;4363244;32;35195;-73
2022/08/06 00:44:02;;;;;;;8.15;3.53;;;;;;;24.23;46.81;99458.13;4363139;32;34739;-73
2022/08/06 00:46:49;;;;;;;7.20;3.92;;;;;;;24.20;47.35;99456.12;4363384;32;35955;-73
2022/08/06 00:49:35;;;;;;;6.80;3.65;;;;;;;24.15;47.32;99460.16;4363174;32;34756;-74
2022/08/06 00:52:34;;;;;;;5.87;3.55;;;;;;;23.94;47.75;99457.47;4363282;32;34257;-73
2022/08/06 00:55:21;;;;;;;6.05;3.80;;;;;;;23.93;48.15;99458.63;4363196;32;35553;-73
2022/08/06 00:58:21;;;;;;;6.72;3.75;;;;;;;23.98;47.88;99459.00;4361260;32;37161;-73
2022/08/06 01:01:08;;;;;;;5.93;3.72;;;;;;;23.93;47.13;99459.44;4361000;32;34916;-73
2022/08/06 01:04:02;;;;;;;4.80;3.45;;;;;;;23.96;46.97;99444.66;4361998;32;34443;-73
2022/08/06 01:06:48;;;;;;;5.07;3.42;;;;;;;23.93;47.04;99445.44;4362997;32;34685;-73
2022/08/06 01:09:43;;;;;;;6.55;3.60;;;;;;;23.98;47.56;99447.81;4348062;33;35018;-73
2022/08/06 01:12:43;;;;;;;7.55;3.83;;;;;;;24.11;47.23;99439.78;4348057;33;34761;-73
2022/08/06 01:15:32;;;;;;;4.03;3.28;;;;;;;24.08;47.57;99450.97;4348186;33;34296;-73
2022/08/06 01:19:05;;;;;;;6.87;4.15;;;;;;;24.15;46.78;99440.56;4341338;32;35597;-73
2022/08/06 01:22:30;;;;;;;7.00;3.95;;;;;;;23.72;48.40;99440.75;4362647;32;35075;-73
2022/08/06 01:28:38;;;;;;;5.97;3.72;;;;;;;23.52;49.37;99439.56;4362543;32;34261;-73
2022/08/06 01:31:35;;;;;;;5.68;3.75;;;;;;;23.48;49.51;99438.78;4365129;32;34660;-73
2022/08/06 01:34:28;;;;;;;7.05;3.47;;;;;;;23.38;49.74;99445.19;4361576;32;34943;-73
2022/08/06 01:37:31;;;;;;;5.87;3.55;;;;;;;23.60;49.17;99446.75;4364279;32;35459;-73
2022/08/06 01:40:28;;;;;;;6.30;3.28;;;;;;;23.85;49.55;99445.88;4362426;32;35188;-73
2022/08/06 01:43:16;;;;;;;6.07;3.40;;;;;;;23.95;49.40;99445.06;4351268;32;34738;-73
2022/08/06 01:46:23;;;;;;;6.47;4.07;;;;;;;24.00;49.08;99450.22;4353438;32;35923;-73
2022/08/06 01:49:16;;;;;;;5.60;3.65;;;;;;;23.11;51.36;99442.84;4361539;32;34720;-73
2022/08/06 01:52:11;;;;;;;5.22;3.90;;;;;;;23.45;50.45;99436.78;4361272;32;34238;-73
2022/08/06 01:55:16;;;;;;;5.07;3.83;;;;;;;23.86;49.53;99436.31;4362303;32;34907;-73
2022/08/06 01:58:06;;;;;;;;;;;;;;;23.75;50.27;99439.91;4361660;32;35972;-73
2022/08/06 02:01:13;;;;;;;6.32;3.75;;;;;;;23.64;50.03;99436.34;4362276;32;35926;-73
2022/08/06 02:04:06;;;;;;;7.85;4.78;;;;;;;22.65;53.12;99440.78;4362224;32;35337;-73
2022/08/06 02:06:55;;;;;;;8.15;4.18;;;;;;;22.71;52.95;99444.78;4351101;32;35548;-73
2022/08/06 02:09:43;;;;;;;6.00;4.05;;;;;;;22.97;52.75;99442.81;4361146;32;35043;-73
2022/08/06 02:12:34;;;;;;;6.43;3.65;;;;;;;23.63;49.91;99442.34;4362838;32;35406;-73
2022/08/06 02:15:35;;;;;;;6.22;3.75;;;;;;;23.27;51.39;99437.63;4363674;32;34214;-73
2022/08/06 02:18:45;;;;;;;5.62;3.80;;;;;;;23.16;51.88;99445.22;4355140;32;35634;-73
2022/08/06 02:21:35;;;;;;;7.05;3.80;;;;;;;23.42;51.01;99451.56;4353561;32;35056;-73
2022/08/06 02:24:24;;;;;;;6.62;3.90;;;;;;;23.53;50.11;99443.94;4363276;32;35380;-73
2022/08/06 02:27:13;;;;;;;5.30;3.50;;;;;;;23.15;51.38;99452.00;4363245;32;34353;-73
2022/08/06 02:30:02;;;;;;;5.45;4.05;;;;;;;22.97;53.19;99440.03;4364147;32;35740;-73
2022/08/06 02:32:52;;;;;;;7.40;3.90;;;;;;;23.31;51.84;99444.00;4363274;32;34997;-73
2022/08/06 02:35:47;;;;;;;8.38;4.20;;;;;;;22.95;52.78;99445.22;4363346;32;35509;-73
2022/08/06 02:38:40;;;;;;;6.28;3.83;;;;;;;23.13;52.11;99460.00;4353298;32;35089;-73
2022/08/06 02:41:56;;;;;;;5.95;3.67;;;;;;;23.35;50.87;99442.00;4364279;32;35610;-73
2022/08/06 02:45:07;;;;;;;6.28;3.53;;;;;;;23.34;50.62;99451.59;4353333;32;35009;-73
2022/08/06 02:48:04;;;;;;;5.90;3.78;;;;;;;23.33;50.79;99444.37;4352929;32;35666;-72
2022/08/06 02:50:57;;;;;;;7.32;3.87;;;;;;;23.26;50.99;99446.41;4363353;32;35130;-73
2022/08/06 02:53:59;;;;;;;6.43;3.75;;;;;;;22.86;52.34;99438.03;4364039;32;34701;-73
2022/08/06 02:56:52;;;;;;;7.07;3.83;;;;;;;22.99;52.75;99446.03;4362969;32;36068;-73
2022/08/06 02:59:44;;;;;;;20.27;4.82;;;;;;;22.77;53.22;99442.41;4363943;32;34928;-73
2022/08/06 03:02:31;;;;;;;6.68;3.87;;;;;;;22.98;52.77;99444.44;4352834;32;34412;-73
2022/08/06 03:05:19;;;;;;;5.22;3.78;;;;;;;23.20;51.85;99445.25;4362900;32;35610;-73
2022/08/06 03:08:26;;;;;;;6.20;4.18;;;;;;;22.75;53.30;99442.81;4363823;32;35055;-73
2022/08/06 03:11:13;;;;;;;8.00;4.00;;;;;;;23.09;53.13;99446.03;4352696;32;35507;-73
2022/08/06 03:14:01;;;;;;;5.37;3.70;;;;;;;23.00;53.32;99447.66;4352828;32;35029;-73
2022/08/06 03:16:58;;;;;;;5.28;3.95;;;;;;;22.90;53.71;99452.00;4362839;32;34617;-73
2022/08/06 03:19:46;;;;;;;5.82;3.90;;;;;;;22.78;53.93;99444.81;4362964;32;36001;-73
2022/08/06 03:22:46;;;;;;;8.25;3.80;;;;;;;22.75;52.91;99448.41;4362476;32;34831;-73
2022/08/06 03:25:35;;;;;;;11.00;4.30;;;;;;;22.58;53.58;99444.37;4362979;32;34246;-73
2022/08/06 03:28:28;;;;;;;6.80;3.90;;;;;;;22.61;52.88;99442.81;4362792;32;34735;-73
2022/08/06 03:31:15;;;;;;;6.43;3.95;;;;;;;22.26;54.09;99447.13;4352551;32;35979;-73
2022/08/06 03:34:02;;;;;;;11.23;4.10;;;;;;;22.26;53.48;99449.91;4362881;32;35418;-73
2022/08/06 03:36:50;;;;;;;8.95;3.90;;;;;;;22.43;52.04;99459.53;4365294;32;35006;-73
2022/08/06 03:39:37;;;;;;;6.90;4.30;;;;;;;22.58;52.02;99449.19;4362775;32;35613;-73
2022/08/06 03:42:24;;;;;;;5.05;3.80;;;;;;;22.47;52.69;99448.34;4362842;32;35048;-73
2022/08/06 03:45:23;;;;;;;7.05;3.47;;;;;;;22.24;52.65;99452.28;4363120;32;35391;-73
2022/08/06 03:48:34;;;;;;;5.22;3.55;;;;;;;22.16;52.89;99442.28;4363786;32;35014;-73
2022/08/06 03:51:26;;;;;;;9.30;4.25;;;;;;;22.42;52.13;99446.75;4362773;32;34646;-73
2022/08/06 03:54:36;;;;;;;8.43;4.18;;;;;;;22.25;52.63;99456.66;4363609;32;34991;-73
2022/08/06 03:57:34;;;;;;;6.05;3.70;;;;;;;22.43;52.04;99448.38;4372655;32;34935;-73
2022/08/06 04:00:36;;;;;;;5.47;3.55;;;;;;;22.11;52.37;99451.00;4362813;32;35345;-73
2022/08/06 04:03:23;;;;;;;5.97;3.72;;;;;;;21.32;55.99;99453.41;4373117;32;34715;-73
2022/08/06 04:06:11;;;;;;;5.95;3.97;;;;;;;22.19;53.03;99441.50;4362588;32;36054;-73
2022/08/06 04:09:02;;;;;;;8.00;4.20;;;;;;;22.15;53.14;99449.06;4363381;32;34647;-73
2022/08/06 04:11:49;;;;;;;6.95;4.60;;;;;;;19.97;62.79;99462.81;4352508;32;34206;-73
2022/08/06 04:18:30;;;;;;;6.20;4.00;;;;;;;21.24;59.96;99465.69;4363520;32;35978;-73
2022/08/06 04:21:19;;;;;;;8.18;3.95;;;;;;;21.21;58.01;99472.81;4362435;32;34597;-73
2022/08/06 04:24:26;;;;;;;7.25;4.50;;;;;;;21.92;56.18;99474.47;4370987;32;35044;-73
2022/08/06 04:27:17;;;;;;;;;;;;;;;20.34;59.99;99480.72;4362814;32;35570;-75
2022/08/06 04:30:05;;;;;;;6.97;4.00;;;;;;;21.70;56.36;99476.34;4362541;32;35286;-73
2022/08/06 04:32:52;;;;;;;6.87;4.12;;;;;;;21.81;56.10;99476.41;4363451;32;35556;-73
2022/08/06 04:35:47;;;;;;;8.63;4.55;;;;;;;22.35;54.82;99466.28;4362403;32;34252;-74
2022/08/06 04:38:53;;;;;;;7.28;4.20;;;;;;;21.38;57.14;99474.16;4362424;32;34730;-73
2022/08/06 04:41:43;;;;;;;7.22;4.37;;;;;;;21.38;57.18;99478.94;4372549;32;35050;-73
2022/08/06 04:44:32;;;;;;;6.70;4.25;;;;;;;22.17;56.12;99480.97;4372900;32;34580;-73
2022/08/06 04:47:18;;;;;;;6.95;4.18;;;;;;;21.78;56.63;99487.16;4352026;32;34209;-73
2022/08/06 04:50:06;;;;;;;8.73;4.18;;;;;;;21.06;56.55;99502.56;4352004;32;34890;-73
2022/08/06 04:53:07;;;;;;;6.70;3.70;;;;;;;20.74;58.35;99507.03;4362243;32;35147;-73
2022/08/06 04:55:53;;;;;;;5.60;3.58;;;;;;;21.16;57.16;99511.38;4363121;32;34938;-73
2022/08/06 04:58:49;;;;;;;8.63;3.75;;;;;;;21.68;54.56;99503.81;4363053;32;35268;-74
2022/08/06 05:01:36;;;;;;;5.78;3.80;;;;;;;22.23;52.82;99503.72;4363080;32;35646;-73
2022/08/06 05:04:43;;;;;;;6.30;3.53;;;;;;;22.35;53.13;99503.38;4366268;32;36060;-74
2022/08/06 05:07:32;;;;;;;8.23;4.45;;;;;;;21.41;55.65;99504.03;4362920;32;34643;-73
2022/08/06 05:10:56;;;;;;;7.22;4.12;;;;;;;21.62;55.35;99505.37;4355646;32;33739;-78
2022/08/06 05:13:44;;;;;;;8.77;4.10;;;;;;;21.79;55.43;99508.25;4361818;32;34899;-78
2022/08/06 05:16:40;;;;;;;8.80;4.30;;;;;;;22.78;53.32;99508.25;4366111;32;35191;-79
2022/08/06 05:19:56;;;;;;;6.18;4.32;;;;;;;23.47;50.98;99512.69;4372131;32;35078;-80
2022/08/06 05:22:44;;;;;;;8.82;4.30;;;;;;;23.01;52.46;99521.87;4363427;32;34193;-80
2022/08/06 05:25:40;;;;;;;9.00;4.68;;;;;;;22.73;53.97;99517.00;4370640;32;35039;-80
2022/08/06 05:28:39;;;;;;;7.18;4.05;;;;;;;23.70;51.37;99518.66;4368759;32;35144;-79
2022/08/06 05:31:36;;;;;;;8.15;4.37;;;;;;;23.41;53.20;99514.28;4367651;32;35076;-79
2022/08/06 05:34:26;;;;;;;7.20;4.35;;;;;;;23.26;53.57;99527.47;4365221;32;34323;-80
2022/08/06 05:37:12;;;;;;;6.78;4.10;;;;;;;23.14;53.71;99528.69;4362928;32;34725;-79
2022/08/06 05:39:59;;;;;;;9.32;4.25;;;;;;;23.93;52.98;99523.78;4366678;32;36042;-80
2022/08/06 05:42:45;;;;;;;6.15;4.55;;;;;;;23.83;54.64;99527.44;4362332;32;35620;-80
2022/08/06 05:45:43;;;;;;;8.25;4.62;;;;;;;24.04;55.03;99531.38;4361938;32;34525;-78
2022/08/06 05:48:36;;;;;;;6.93;4.60;;;;;;;24.17;55.43;99533.31;4355008;32;34649;-79
2022/08/06 05:51:30;;;;;;;8.23;4.82;;;;;;;24.21;55.44;99534.09;4359808;32;34751;-80
2022/08/06 05:54:43;;;;;;;6.73;4.63;;;;;;;24.23;55.84;99530.91;4367077;32;35018;-80
2022/08/06 05:57:44;;;;;;;8.55;4.62;;;;;;;24.65;55.00;99532.72;4340934;32;34391;-79
2022/08/06 06:00:40;;;;;;;10.52;5.37;;;;;;;24.39;55.78;99530.41;4360308;32;34362;-78
2022/08/06 06:03:30;;;;;;;10.57;5.20;;;;;;;24.28;56.42;99538.06;4359677;32;34937;-80
2022/08/06 06:06:18;;;;;;;11.00;5.20;;;;;;;24.46;56.07;99536.03;4368590;32;35788;-79
2022/08/06 06:09:06;;;;;;;8.55;5.18;;;;;;;24.48;56.11;99539.22;4368329;32;34308;-75
2022/08/06 06:11:55;;;;;;;8.27;5.15;;;;;;;24.88;54.57;99529.37;4362623;32;34859;-76
2022/08/06 06:14:51;;;;;;;9.48;5.20;;;;;;;24.96;54.14;99521.72;4363143;32;35090;-76
2022/08/06 06:17:53;;;;;;;7.40;4.93;;;;;;;25.26;52.90;99520.31;4356972;32;35539;-76
2022/08/06 06:21:04;;;;;;;7.45;4.75;;;;;;;25.47;49.29;99528.53;4355706;32;35047;-76
2022/08/06 06:24:19;;;;;;;8.52;4.75;;;;;;;25.26;47.08;99537.91;4358079;32;35619;-76
2022/08/06 06:27:15;;;;;;;8.82;4.57;;;;;;;25.23;47.00;99532.34;4362396;32;35101;-76
2022/08/06 06:30:56;;;;;;;9.82;4.70;;;;;;;25.71;45.80;99531.50;4367305;32;35530;-77
2022/08/06 06:34:01;;;;;;;10.77;5.05;;;;;;;25.97;44.14;99536.47;4326170;32;33989;-78
2022/08/06 06:37:25;;;;;;;8.93;4.50;;;;;;;25.80;44.10;99538.22;4356517;32;36035;-79
2022/08/06 06:40:31;;;;;;;7.72;4.75;;;;;;;25.98;43.80;99538.03;4352384;32;36019;-78
2022/08/06 06:43:34;;;;;;;11.63;4.80;;;;;;;26.08;43.25;99547.56;4356390;32;34400;-78
2022/08/06 06:46:51;;;;;;;8.80;5.05;;;;;;;25.95;43.32;99552.91;4356596;32;34873;-78
2022/08/06 06:49:40;;;;;;;7.12;4.80;;;;;;;26.26;43.49;99533.31;4348418;32;34682;-77
2022/08/06 06:52:50;;;;;;;11.63;5.40;;;;;;;26.44;42.74;99552.75;4356168;32;34569;-78
2022/08/06 06:55:40;;;;;;;8.05;5.37;;;;;;;26.50;43.16;99553.06;4355274;32;35485;-79
2022/08/06 06:58:50;;;;;;;9.35;6.00;;;;;;;26.99;41.89;99550.81;4356237;32;34112;-80
2022/08/06 07:01:37;;;;;;;12.98;5.80;;;;;;;26.52;43.22;99559.09;4357296;32;35543;-79
2022/08/06 07:04:25;;;;;;;7.60;5.78;;;;;;;26.74;43.07;99548.38;4351213;32;35882;-80
2022/08/06 07:07:14;;;;;;;8.75;5.82;;;;;;;26.94;42.60;99556.91;4354151;32;35451;-79
2022/08/06 07:10:11;;;;;;;9.07;5.70;;;;;;;26.91;42.36;99550.13;4355996;32;34808;-80
2022/08/06 07:12:59;;;;;;;9.30;6.05;;;;;;;27.15;42.60;99556.56;4359600;32;35882;-80
2022/08/06 07:15:47;;;;;;;11.35;5.80;;;;;;;27.17;41.99;99551.37;4357130;32;35569;-79
2022/08/06 07:18:39;;;;;;;10.18;6.50;;;;;;;27.11;41.94;99561.47;4355062;32;35174;-80
2022/08/06 07:21:40;;;;;;;7.20;5.95;;;;;;;27.31;42.20;99551.13;4349561;32;35199;-80
2022/08/06 07:24:34;;;;;;;12.93;6.07;;;;;;;26.65;42.92;99552.50;4355456;32;34682;-79
2022/08/06 07:27:28;;;;;;;9.50;6.00;;;;;;;27.36;41.40;99556.28;4353074;32;35093;-80
2022/08/06 07:30:30;;;;;;;7.28;5.70;;;;;;;26.96;41.41;99560.13;4352288;32;34247;-79
2022/08/06 07:33:16;;;;;;;9.98;5.87;;;;;;;27.11;41.15;99553.84;4356536;32;34903;-80
2022/08/06 07:36:05;;;;;;;9.10;5.80;;;;;;;27.54;42.00;99563.62;4355097;32;36338;-81
2022/08/06 07:38:56;;;;;;;9.52;5.85;;;;;;;28.03;40.56;99566.75;4354228;32;34780;-79
2022/08/06 07:41:45;;;;;;;7.37;4.93;;;;;;;27.47;41.70;99561.72;4357139;32;35448;-81
2022/08/06 07:44:53;;;;;;;7.30;6.07;;;;;;;27.43;41.15;99568.63;4356236;32;34692;-82
2022/08/06 07:47:42;;;;;;;10.10;6.40;;;;;;;28.19;39.73;99572.50;4357907;32;35034;-81
2022/08/06 07:50:42;;;;;;;11.80;6.22;;;;;;;28.18;40.20;99579.34;4350763;32;35274;-78
2022/08/06 07:53:30;;;;;;;8.52;5.62;;;;;;;28.01;40.50;99575.66;4352109;32;34538;-82
2022/08/06 07:56:40;;;;;;;7.97;6.18;;;;;;;28.38;39.97;99567.31;4356824;32;33973;-80
2022/08/06 07:59:46;;;;;;;7.55;5.87;;;;;;;28.40;40.29;99576.09;4356562;32;35609;-79
2022/08/06 08:02:40;;;;;;;7.07;5.85;;;;;;;28.41;40.60;99578.50;4364051;32;34671;-76
2022/08/06 08:08:47;;;;;;;9.75;6.35;;;;;;;28.80;39.11;99576.91;4354662;32;35058;-78
2022/08/06 08:11:40;;;;;;;8.02;6.12;;;;;;;28.81;39.69;99566.41;4356990;32;34323;-78
2022/08/06 08:14:47;;;;;;;10.38;5.87;;;;;;;28.69;39.30;99574.31;4355033;32;35624;-77
2022/08/06 08:17:36;;;;;;;8.30;6.05;;;;;;;29.07;38.14;99568.22;4346039;32;34198;-77
2022/08/06 08:20:22;;;;;;;9.13;5.68;;;;;;;28.84;37.96;99574.00;4353168;32;33987;-79
2022/08/06 08:23:13;;;;;;;8.63;6.05;;;;;;;29.71;37.26;99576.34;4356245;32;34749;-77
2022/08/06 08:26:19;;;;;;;8.77;5.60;;;;;;;29.67;36.92;99572.84;4357806;32;35897;-79
2022/08/06 08:29:11;;;;;;;8.63;6.12;;;;;;;29.22;37.81;99567.88;4355862;32;34426;-77
2022/08/06 08:32:12;;;;;;;10.10;5.87;;;;;;;29.57;37.20;99567.00;4360065;32;33904;-78
2022/08/06 08:35:03;;;;;;;8.15;6.07;;;;;;;29.89;37.88;99564.59;4357308;32;34509;-79
2022/08/06 08:37:49;;;;;;;8.80;5.72;;;;;;;29.89;37.24;99565.41;4354636;32;35903;-78
2022/08/06 08:40:36;;;;;;;8.10;5.30;;;;;;;30.21;36.28;99552.41;4356021;32;34351;-78
2022/08/06 08:43:30;;;;;;;6.20;5.40;;;;;;;29.94;36.48;99564.84;4356671;32;34227;-78
2022/08/06 08:46:43;;;;;;;7.72;5.50;;;;;;;29.99;37.33;99564.28;4357289;32;35666;-79
2022/08/06 08:49:51;;;;;;;6.70;5.53;;;;;;;30.50;35.31;99558.03;4345373;32;34884;-78
2022/08/06 08:52:40;;;;;;;6.47;5.78;;;;;;;31.07;34.59;99569.66;4351895;32;34776;-78
2022/08/06 08:55:27;;;;;;;7.47;5.07;;;;;;;30.84;34.39;99571.56;4350707;32;33118;-76
2022/08/06 08:58:36;;;;;;;6.85;5.50;;;;;;;30.94;34.12;99575.34;4348046;32;34284;-79
2022/08/06 09:01:43;;;;;;;7.87;5.50;;;;;;;31.46;33.86;99567.63;4355713;32;35036;-79
2022/08/06 09:04:39;;;;;;;7.15;5.32;;;;;;;31.92;33.18;99559.56;4344867;32;35563;-78
2022/08/06 09:07:28;;;;;;;9.05;5.43;;;;;;;31.48;32.57;99568.75;4349540;32;35079;-79
2022/08/06 09:10:22;;;;;;;8.02;5.18;;;;;;;31.63;32.66;99560.56;4345743;32;34758;-77
2022/08/06 09:13:12;;;;;;;10.20;5.65;;;;;;;31.32;32.95;99568.84;4354951;32;35535;-79
2022/08/06 09:16:12;;;;;;;6.53;5.43;;;;;;;31.14;32.88;99567.41;4356451;32;34345;-79
2022/08/06 09:19:16;;;;;;;6.37;5.37;;;;;;;31.63;32.26;99562.59;4354027;32;34241;-81
2022/08/06 09:22:05;;;;;;;10.02;5.82;;;;;;;32.07;31.70;99565.53;4358364;32;34487;-80
2022/08/06 09:24:54;;;;;;;7.85;5.53;;;;;;;31.86;31.84;99564.22;4354524;32;35224;-80
2022/08/06 09:27:41;;;;;;;6.80;5.32;;;;;;;31.71;31.41;99567.56;4354744;32;35292;-77
2022/08/06 09:30:34;;;;;;;7.57;5.25;;;;;;;31.59;30.92;99571.19;4359913;32;35097;-78
2022/08/06 09:33:22;;;;;;;9.02;6.12;;;;;;;31.78;30.89;99569.34;4347419;32;34179;-81
2022/08/06 09:36:28;;;;;;;6.12;5.10;;;;;;;31.85;31.11;99559.78;4356009;32;34935;-78
2022/08/06 09:39:34;;;;;;;10.05;5.72;;;;;;;32.18;31.58;99557.41;4352161;32;35115;-81
2022/08/06 09:42:48;;;;;;;6.32;5.05;;;;;;;32.30;31.20;99558.59;4356676;32;35042;-81
2022/08/06 09:45:44;;;;;;;7.30;5.85;;;;;;;32.61;30.32;99550.94;4354367;32;34736;-78
2022/08/06 09:48:31;;;;;;;8.38;6.28;;;;;;;32.57;30.74;99555.97;4359071;32;34700;-77
2022/08/06 09:51:21;;;;;;;7.07;6.05;;;;;;;32.59;31.11;99564.81;4356753;32;33685;-81
2022/08/06 09:54:36;;;;;;;9.93;5.45;;;;;;;32.54;31.25;99565.41;4354410;32;33956;-81
2022/08/06 09:57:25;;;;;;;7.47;5.57;;;;;;;33.07;30.94;99558.91;4356935;32;34680;-79
2022/08/06 10:00:31;;;;;;;7.68;6.15;;;;;;;32.50;31.48;99564.75;4350761;32;34983;-80
2022/08/06 10:03:18;;;;;;;8.27;6.25;;;;;;;32.56;30.86;99560.06;4353989;32;35443;-80
2022/08/06 10:06:25;;;;;;;11.77;5.95;;;;;;;33.34;29.97;99559.00;4358101;32;33775;-80
2022/08/06 10:09:13;;;;;;;9.65;5.80;;;;;;;33.48;30.01;99559.66;4358080;32;34293;-80
2022/08/06 10:12:23;;;;;;;6.07;5.37;;;;;;;33.61;29.17;99556.69;4356586;32;35059;-81
2022/08/06 10:15:28;;;;;;;7.62;5.60;;;;;;;33.83;29.28;99556.56;4354964;32;34246;-80
2022/08/06 10:18:42;;;;;;;8.18;5.55;;;;;;;33.42;29.54;99556.66;4359037;32;34491;-80
2022/08/06 10:21:44;;;;;;;11.57;5.80;;;;;;;32.76;30.30;99567.41;4358264;32;34789;-79
2022/08/06 10:24:42;;;;;;;11.30;6.95;;;;;;;32.83;30.74;99561.47;4357882;32;33630;-77
2022/08/06 10:27:35;;;;;;;10.55;6.10;;;;;;;33.07;30.34;99559.72;4360068;32;35457;-80
2022/08/06 10:30:24;;;;;;;7.22;5.87;;;;;;;33.66;29.87;99550.41;4360202;32;33878;-80
2022/08/06 10:33:12;;;;;;;9.25;6.65;;;;;;;33.47;30.03;99550.34;4359286;32;34889;-79
2022/08/06 10:36:14;;;;;;;8.27;6.07;;;;;;;33.84;29.23;99558.91;4349939;32;35964;-80
2022/08/06 10:39:07;;;;;;;10.30;6.20;;;;;;;34.11;28.71;99548.84;4366957;32;35447;-82
2022/08/06 10:42:14;;;;;;;6.93;6.22;;;;;;;34.56;28.49;99552.91;4364614;32;34349;-81
2022/08/06 10:45:09;;;;;;;6.90;5.87;;;;;;;33.77;29.32;99547.88;4358427;32;34659;-78
2022/08/06 10:47:58;;;;;;;;;;;;;;;34.10;29.09;99548.06;4360173;32;36055;-79
2022/08/06 10:51:06;;;;;;;9.95;5.97;;;;;;;33.50;29.97;99554.28;4354754;32;35938;-81
2022/08/06 10:53:52;;;;;;;7.28;6.05;;;;;;;33.95;29.04;99552.78;4350958;32;34348;-80
2022/08/06 10:56:59;;;;;;;8.77;5.95;;;;;;;34.08;29.37;99544.91;4359967;32;34671;-82
2022/08/06 10:59:50;;;;;;;9.27;6.18;;;;;;;34.62;28.10;99546.09;4363209;32;34924;-82
2022/08/06 11:02:52;;;;;;;10.48;6.35;;;;;;;34.35;28.91;99541.22;4359849;32;34668;-80
2022/08/06 11:05:43;;;;;;;10.70;6.97;;;;;;;34.62;28.70;99531.09;4358840;32;33756;-82
2022/08/06 11:08:52;;;;;;;11.50;6.50;;;;;;;34.41;29.15;99539.34;4348110;32;34614;-81
2022/08/06 11:11:56;;;;;;;8.90;6.80;;;;;;;34.62;29.20;99523.34;4343118;32;35968;-79
2022/08/06 11:14:52;;;;;;;9.40;6.22;;;;;;;34.79;28.46;99543.66;4359166;32;34769;-81
2022/08/06 11:17:49;;;;;;;7.25;6.55;;;;;;;35.06;27.95;99539.16;4348583;32;33882;-81
2022/08/06 11:20:39;;;;;;;9.95;7.10;;;;;;;34.88;28.85;99535.09;4359591;32;34902;-80
2022/08/06 11:23:29;;;;;;;12.98;6.80;;;;;;;34.72;29.76;99526.94;4359428;32;33714;-81
2022/08/06 11:26:42;;;;;;;9.80;7.40;;;;;;;34.61;30.78;99524.62;4359569;32;34661;-82
2022/08/06 11:29:29;;;;;;;9.02;6.55;;;;;;;35.01;29.63;99526.34;4356114;32;33844;-80
2022/08/06 11:32:43;;;;;;;10.00;6.97;;;;;;;34.98;29.82;99520.81;4359141;32;34821;-79
2022/08/06 11:35:33;;;;;;;10.90;7.10;;;;;;;35.36;29.24;99515.25;4359702;32;35030;-81
2022/08/06 11:38:46;;;;;;;8.00;7.05;;;;;;;34.27;31.02;99525.78;4357613;32;33545;-82
2022/08/06 11:42:01;;;;;;;9.25;7.18;;;;;;;34.49;30.79;99517.81;4358484;32;34081;-80
2022/08/06 11:45:01;;;;;;;13.05;6.80;;;;;;;34.09;31.13;99528.63;4350602;32;35374;-81
2022/08/06 11:48:07;;;;;;;9.90;7.18;;;;;;;34.08;31.22;99527.06;4359308;32;34930;-77
2022/08/06 11:51:37;;;;;;;11.70;7.32;;;;;;;33.51;32.74;99525.41;4357665;32;35764;-77
2022/08/06 11:54:28;;;;;;;10.70;7.90;;;;;;;33.51;32.99;99516.13;4357524;32;32927;-78
2022/08/06 11:57:15;;;;;;;10.13;7.82;;;;;;;33.60;33.50;99527.50;4355233;32;34613;-77
2022/08/06 12:00:22;;;;;;;9.75;7.90;;;;;;;33.22;33.50;99527.91;4355400;32;34958;-79
2022/08/06 12:03:09;;;;;;;10.48;7.97;;;;;;;33.51;33.16;99530.31;4355138;32;34696;-78
2022/08/06 12:06:18;;;;;;;11.48;7.80;;;;;;;33.26;33.56;99537.03;4355196;32;35075;-79
2022/08/06 12:09:18;;;;;;;13.98;8.35;;;;;;;34.05;32.99;99556.44;4347298;32;34653;-80
2022/08/06 12:12:24;;;;;;;11.53;8.10;;;;;;;33.30;33.89;99537.69;4356160;32;35745;-79
2022/08/06 12:15:11;;;;;;;11.35;8.15;;;;;;;33.31;34.17;99540.06;4358401;32;34285;-79
2022/08/06 12:18:19;;;;;;;13.73;8.30;;;;;;;34.24;32.91;99533.22;4357292;32;34117;-81
2022/08/06 12:21:15;;;;;;;10.85;8.25;;;;;;;33.31;33.86;99537.22;4361389;32;35596;-79
2022/08/06 12:24:03;;;;;;;10.75;8.48;;;;;;;33.78;33.37;99538.09;4358830;32;35155;-77
2022/08/06 12:26:49;;;;;;;12.37;8.85;;;;;;;33.05;34.31;99556.53;4357659;32;34203;-80
2022/08/06 12:29:37;;;;;;;14.48;8.43;;;;;;;33.33;34.52;99545.28;4352882;32;34704;-78
2022/08/06 12:32:35;;;;;;;11.32;8.50;;;;;;;32.67;35.43;99560.44;4351578;32;34764;-77
2022/08/06 12:35:52;;;;;;;13.77;8.77;;;;;;;32.69;35.62;99549.41;4347890;32;35003;-81
2022/08/06 12:38:41;;;;;;;12.18;9.07;;;;;;;32.98;34.80;99550.31;4357940;32;34285;-80
2022/08/06 12:41:36;;;;;;;17.80;8.88;;;;;;;32.79;35.26;99555.94;4352837;32;34168;-79
2022/08/06 12:44:32;;;;;;;11.30;8.32;;;;;;;32.63;35.28;99559.78;4346640;32;34812;-81
2022/08/06 12:47:38;;;;;;;9.85;8.45;;;;;;;32.99;34.87;99547.06;4355250;32;35054;-83
2022/08/06 12:50:45;;;;;;;13.82;8.95;;;;;;;33.62;33.90;99563.97;4356563;32;35821;-81
2022/08/06 12:53:33;;;;;;;11.48;8.95;;;;;;;33.56;33.43;99556.06;4358185;32;34463;-79
2022/08/06 12:56:24;;;;;;;10.32;8.18;;;;;;;33.28;34.08;99557.25;4345648;32;34605;-78
2022/08/06 12:59:16;;;;;;;13.70;8.55;;;;;;;33.69;33.37;99558.75;4343842;32;36497;-78
2022/08/06 13:02:09;;;;;;;11.52;8.50;;;;;;;34.11;33.60;99560.22;4356053;32;32974;-78
2022/08/06 13:05:12;;;;;;;12.88;9.00;;;;;;;33.14;33.96;99562.25;4357572;32;33631;-81
2022/08/06 13:08:00;;;;;;;11.88;9.02;;;;;;;33.98;32.84;99551.81;4355687;32;34562;-78
2022/08/06 13:10:50;;;;;;;14.90;9.43;;;;;;;33.02;34.47;99568.84;4351221;32;34666;-81
2022/08/06 13:13:39;;;;;;;12.98;8.77;;;;;;;33.02;34.45;99556.69;4364997;32;34199;-77
2022/08/06 13:16:47;;;;;;;13.57;9.18;;;;;;;33.45;34.11;99552.88;4358886;32;34258;-82
2022/08/06 13:19:55;;;;;;;11.95;9.10;;;;;;;33.88;33.13;99547.41;4353317;32;34359;-80
2022/08/06 13:22:49;;;;;;;16.97;10.20;;;;;;;33.67;34.15;99557.66;4354064;32;35305;-81
2022/08/06 13:25:44;;;;;;;12.57;8.73;;;;;;;33.71;34.82;99555.47;4356992;32;34561;-78
2022/08/06 13:28:38;;;;;;;11.98;9.20;;;;;;;33.77;34.00;99559.25;4346109;32;33040;-80
2022/08/06 13:31:46;;;;;;;11.52;8.80;;;;;;;33.62;34.78;99549.78;4346270;32;35280;-81
2022/08/06 13:34:49;;;;;;;;;;;;;;;33.91;33.96;99549.31;4357010;32;34897;-79
2022/08/06 13:37:48;;;;;;;9.90;8.80;;;;;;;33.30;34.77;99549.84;4344526;32;34872;-81
2022/08/06 13:40:48;;;;;;;18.12;8.73;;;;;;;33.38;34.53;99558.84;4355626;32;35065;-81
2022/08/06 13:43:49;;;;;;;13.00;8.32;;;;;;;33.12;35.36;99552.63;4356893;32;35588;-80
2022/08/06 13:46:42;;;;;;;13.60;7.40;;;;;;;32.75;36.40;99543.13;4357061;32;36626;-81
2022/08/06 13:49:36;;;;;;;14.15;7.40;;;;;;;32.45;37.68;99557.66;4345242;32;35398;-80
2022/08/06 13:52:25;;;;;;;11.48;7.43;;;;;;;31.94;37.91;99579.75;4353397;32;33994;-79
2022/08/06 13:55:11;;;;;;;14.50;7.22;;;;;;;31.14;39.65;99567.41;4345802;32;35412;-77
2022/08/06 13:58:00;;;;;;;10.55;6.70;;;;;;;31.55;39.64;99550.72;4357497;32;34911;-80